sensor_id;sensor_type;location;lat;lon;timestamp;pressure;altitude;pressure_sealevel;temperature;humidity
70338;BME280;57757;53.198;19.646;2023-04-10T00:01:12;101103.20;;;6.74;63.43
70338;BME280;57757;53.198;19.646;2023-04-10T00:03:39;101100.08;;;6.70;63.45
70338;BME280;57757;53.198;19.646;2023-04-10T00:06:08;101101.77;;;6.67;63.42
70338;BME280;57757;53.198;19.646;2023-04-10T00:08:35;101099.68;;;6.62;63.56
70338;BME280;57757;53.198;19.646;2023-04-10T00:11:03;101100.17;;;6.59;63.50
70338;BME280;57757;53.198;19.646;2023-04-10T00:13:31;101099.63;;;6.55;63.56
70338;BME280;57757;53.198;19.646;2023-04-10T00:15:59;101101.31;;;6.51;63.58
70338;BME280;57757;53.198;19.646;2023-04-10T00:18:26;101101.13;;;6.48;63.60
70338;BME280;57757;53.198;19.646;2023-04-10T00:20:54;101102.65;;;6.44;63.56
70338;BME280;57757;53.198;19.646;2023-04-10T00:23:22;101101.06;;;6.41;63.60
70338;BME280;57757;53.198;19.646;2023-04-10T00:25:50;101103.11;;;6.37;63.66
70338;BME280;57757;53.198;19.646;2023-04-10T00:28:18;101106.88;;;6.33;63.75
70338;BME280;57757;53.198;19.646;2023-04-10T00:30:45;101103.55;;;6.30;63.72
70338;BME280;57757;53.198;19.646;2023-04-10T00:33:13;101103.36;;;6.26;63.81
70338;BME280;57757;53.198;19.646;2023-04-10T00:35:42;101103.35;;;6.24;63.83
70338;BME280;57757;53.198;19.646;2023-04-10T00:38:10;101105.56;;;6.21;63.87
70338;BME280;57757;53.198;19.646;2023-04-10T00:40:38;101105.36;;;6.18;63.91
70338;BME280;57757;53.198;19.646;2023-04-10T00:43:06;101106.02;;;6.15;63.86
70338;BME280;57757;53.198;19.646;2023-04-10T00:45:34;101105.81;;;6.11;63.92
70338;BME280;57757;53.198;19.646;2023-04-10T00:48:02;101103.70;;;6.07;63.91
70338;BME280;57757;53.198;19.646;2023-04-10T00:50:30;101106.96;;;6.04;63.90
70338;BME280;57757;53.198;19.646;2023-04-10T00:52:59;101105.20;;;6.02;63.97
70338;BME280;57757;53.198;19.646;2023-04-10T00:55:26;101106.38;;;5.98;64.03
70338;BME280;57757;53.198;19.646;2023-04-10T00:57:55;101106.53;;;5.96;63.99
70338;BME280;57757;53.198;19.646;2023-04-10T01:00:23;101104.95;;;5.92;63.98
70338;BME280;57757;53.198;19.646;2023-04-10T01:02:52;101109.07;;;5.90;64.07
70338;BME280;57757;53.198;19.646;2023-04-10T01:05:21;101112.46;;;5.87;64.17
70338;BME280;57757;53.198;19.646;2023-04-10T01:13:18;101109.40;;;5.76;64.27
70338;BME280;57757;53.198;19.646;2023-04-10T01:15:53;101109.89;;;5.73;64.30
70338;BME280;57757;53.198;19.646;2023-04-10T01:18:37;101105.38;;;5.70;64.36
70338;BME280;57757;53.198;19.646;2023-04-10T01:21:10;101098.94;;;5.67;64.31
70338;BME280;57757;53.198;19.646;2023-04-10T01:26:38;101101.63;;;5.60;64.46
70338;BME280;57757;53.198;19.646;2023-04-10T01:29:11;101101.41;;;5.56;64.32
70338;BME280;57757;53.198;19.646;2023-04-10T01:32:31;101105.16;;;5.53;64.52
70338;BME280;57757;53.198;19.646;2023-04-10T01:34:43;101103.58;;;5.50;64.43
70338;BME280;57757;53.198;19.646;2023-04-10T01:37:19;101102.69;;;5.47;64.53
70338;BME280;57757;53.198;19.646;2023-04-10T01:39:50;101104.53;;;5.43;64.40
70338;BME280;57757;53.198;19.646;2023-04-10T01:42:21;101104.83;;;5.40;64.42
70338;BME280;57757;53.198;19.646;2023-04-10T01:44:49;101103.23;;;5.37;64.50
70338;BME280;57757;53.198;19.646;2023-04-10T01:47:18;101100.64;;;5.35;64.32
70338;BME280;57757;53.198;19.646;2023-04-10T01:49:47;101105.45;;;5.32;64.45
70338;BME280;57757;53.198;19.646;2023-04-10T01:52:16;101102.98;;;5.29;64.54
70338;BME280;57757;53.198;19.646;2023-04-10T01:54:45;101105.54;;;5.27;64.59
70338;BME280;57757;53.198;19.646;2023-04-10T01:57:15;101103.98;;;5.24;64.48
70338;BME280;57757;53.198;19.646;2023-04-10T01:59:43;101104.29;;;5.23;64.61
70338;BME280;57757;53.198;19.646;2023-04-10T02:02:11;101102.89;;;5.20;64.69
70338;BME280;57757;53.198;19.646;2023-04-10T02:04:39;101104.05;;;5.18;64.64
70338;BME280;57757;53.198;19.646;2023-04-10T02:12:58;101108.03;;;5.06;64.75
70338;BME280;57757;53.198;19.646;2023-04-10T02:15:29;101108.84;;;5.03;64.67
70338;BME280;57757;53.198;19.646;2023-04-10T02:18:00;101110.52;;;4.99;64.70
70338;BME280;57757;53.198;19.646;2023-04-10T02:20:30;101113.05;;;4.96;64.71
70338;BME280;57757;53.198;19.646;2023-04-10T02:22:59;101110.05;;;4.91;64.87
70338;BME280;57757;53.198;19.646;2023-04-10T02:25:31;101106.58;;;4.89;64.92
70338;BME280;57757;53.198;19.646;2023-04-10T02:28:06;101107.06;;;4.87;64.88
70338;BME280;57757;53.198;19.646;2023-04-10T02:30:35;101107.54;;;4.84;64.94
70338;BME280;57757;53.198;19.646;2023-04-10T02:33:03;101108.02;;;4.81;64.88
70338;BME280;57757;53.198;19.646;2023-04-10T02:35:32;101108.17;;;4.79;64.99
70338;BME280;57757;53.198;19.646;2023-04-10T02:38:00;101111.90;;;4.76;64.80
70338;BME280;57757;53.198;19.646;2023-04-10T02:40:28;101112.88;;;4.73;64.90
70338;BME280;57757;53.198;19.646;2023-04-10T02:42:55;101116.65;;;4.70;64.82
70338;BME280;57757;53.198;19.646;2023-04-10T02:45:23;101113.83;;;4.67;64.84
70338;BME280;57757;53.198;19.646;2023-04-10T02:47:51;101116.02;;;4.64;64.86
70338;BME280;57757;53.198;19.646;2023-04-10T02:50:18;101113.05;;;4.61;64.96
70338;BME280;57757;53.198;19.646;2023-04-10T02:52:46;101114.41;;;4.59;64.87
70338;BME280;57757;53.198;19.646;2023-04-10T02:55:13;101119.52;;;4.56;64.97
70338;BME280;57757;53.198;19.646;2023-04-10T02:57:42;101121.55;;;4.54;64.99
70338;BME280;57757;53.198;19.646;2023-04-10T03:00:11;101119.30;;;4.53;65.09
70338;BME280;57757;53.198;19.646;2023-04-10T03:02:38;101121.87;;;4.51;64.97
70338;BME280;57757;53.198;19.646;2023-04-10T03:05:07;101124.41;;;4.50;65.00
70338;BME280;57757;53.198;19.646;2023-04-10T03:07:35;101125.61;;;4.48;64.99
70338;BME280;57757;53.198;19.646;2023-04-10T03:10:03;101126.44;;;4.47;65.15
70338;BME280;57757;53.198;19.646;2023-04-10T03:12:30;101126.09;;;4.46;65.04
70338;BME280;57757;53.198;19.646;2023-04-10T03:14:58;101123.64;;;4.44;65.13
70338;BME280;57757;53.198;19.646;2023-04-10T03:17:25;101126.02;;;4.43;65.12
70338;BME280;57757;53.198;19.646;2023-04-10T03:19:53;101126.86;;;4.41;65.07
70338;BME280;57757;53.198;19.646;2023-04-10T03:22:20;101125.26;;;4.39;65.07
70338;BME280;57757;53.198;19.646;2023-04-10T03:24:48;101125.74;;;4.36;65.08
70338;BME280;57757;53.198;19.646;2023-04-10T03:27:17;101128.98;;;4.35;65.11
70338;BME280;57757;53.198;19.646;2023-04-10T03:29:45;101131.38;;;4.32;65.14
70338;BME280;57757;53.198;19.646;2023-04-10T03:32:12;101130.29;;;4.30;65.13
70338;BME280;57757;53.198;19.646;2023-04-10T03:34:40;101129.40;;;4.28;65.18
70338;BME280;57757;53.198;19.646;2023-04-10T03:37:07;101129.90;;;4.27;65.21
70338;BME280;57757;53.198;19.646;2023-04-10T03:39:35;101131.92;;;4.25;65.21
70338;BME280;57757;53.198;19.646;2023-04-10T03:42:03;101131.40;;;4.24;65.26
70338;BME280;57757;53.198;19.646;2023-04-10T03:44:30;101131.38;;;4.23;65.17
70338;BME280;57757;53.198;19.646;2023-04-10T03:46:58;101134.27;;;4.22;65.25
70338;BME280;57757;53.198;19.646;2023-04-10T03:49:27;101138.40;;;4.20;65.27
70338;BME280;57757;53.198;19.646;2023-04-10T03:51:54;101135.98;;;4.20;65.39
70338;BME280;57757;53.198;19.646;2023-04-10T03:54:22;101140.25;;;4.18;65.25
70338;BME280;57757;53.198;19.646;2023-04-10T03:56:50;101136.45;;;4.17;65.29
70338;BME280;57757;53.198;19.646;2023-04-10T03:59:18;101136.94;;;4.16;65.31
70338;BME280;57757;53.198;19.646;2023-04-10T04:01:50;101139.98;;;4.14;65.29
70338;BME280;57757;53.198;19.646;2023-04-10T04:04:19;101139.81;;;4.12;65.45
70338;BME280;57757;53.198;19.646;2023-04-10T04:06:47;101143.05;;;4.12;65.46
70338;BME280;57757;53.198;19.646;2023-04-10T04:09:16;101145.60;;;4.10;65.44
70338;BME280;57757;53.198;19.646;2023-04-10T04:11:43;101145.07;;;4.09;65.42
70338;BME280;57757;53.198;19.646;2023-04-10T04:14:12;101146.23;;;4.06;65.45
70338;BME280;57757;53.198;19.646;2023-04-10T04:16:40;101142.45;;;4.06;65.45
70338;BME280;57757;53.198;19.646;2023-04-10T04:19:08;101144.34;;;4.06;65.69
70338;BME280;57757;53.198;19.646;2023-04-10T04:21:36;101147.10;;;4.06;65.57
70338;BME280;57757;53.198;19.646;2023-04-10T04:24:04;101153.29;;;4.07;65.58
70338;BME280;57757;53.198;19.646;2023-04-10T04:26:32;101150.02;;;4.07;65.68
70338;BME280;57757;53.198;19.646;2023-04-10T04:28:59;101152.64;;;4.09;65.62
70338;BME280;57757;53.198;19.646;2023-04-10T04:31:27;101150.93;;;4.09;65.70
70338;BME280;57757;53.198;19.646;2023-04-10T04:34:00;101155.78;;;4.11;65.79
70338;BME280;57757;53.198;19.646;2023-04-10T04:36:27;101159.44;;;4.14;65.74
70338;BME280;57757;53.198;19.646;2023-04-10T04:38:55;101158.96;;;4.15;65.82
70338;BME280;57757;53.198;19.646;2023-04-10T04:41:22;101162.27;;;4.18;65.81
70338;BME280;57757;53.198;19.646;2023-04-10T04:43:51;101167.33;;;4.20;65.84
70338;BME280;57757;53.198;19.646;2023-04-10T04:46:20;101168.23;;;4.24;65.87
70338;BME280;57757;53.198;19.646;2023-04-10T04:48:48;101172.43;;;4.27;65.90
70338;BME280;57757;53.198;19.646;2023-04-10T04:51:15;101171.27;;;4.30;65.87
70338;BME280;57757;53.198;19.646;2023-04-10T04:53:43;101166.86;;;4.34;65.94
70338;BME280;57757;53.198;19.646;2023-04-10T04:56:10;101165.89;;;4.38;65.95
70338;BME280;57757;53.198;19.646;2023-04-10T04:58:38;101167.15;;;4.41;65.91
70338;BME280;57757;53.198;19.646;2023-04-10T05:01:07;101170.14;;;4.44;65.92
70338;BME280;57757;53.198;19.646;2023-04-10T05:03:35;101172.45;;;4.49;65.90
70338;BME280;57757;53.198;19.646;2023-04-10T05:06:06;101171.49;;;4.53;65.96
70338;BME280;57757;53.198;19.646;2023-04-10T05:08:34;101173.48;;;4.58;66.17
70338;BME280;57757;53.198;19.646;2023-04-10T05:11:01;101175.44;;;4.63;66.05
70338;BME280;57757;53.198;19.646;2023-04-10T05:13:29;101174.18;;;4.69;66.09
70338;BME280;57757;53.198;19.646;2023-04-10T05:15:57;101173.07;;;4.76;66.15
70338;BME280;57757;53.198;19.646;2023-04-10T05:18:25;101170.42;;;4.83;66.25
70338;BME280;57757;53.198;19.646;2023-04-10T05:20:52;101175.14;;;4.87;66.13
70338;BME280;57757;53.198;19.646;2023-04-10T05:23:20;101176.79;;;4.93;66.18
70338;BME280;57757;53.198;19.646;2023-04-10T05:25:47;101178.63;;;5.01;66.18
70338;BME280;57757;53.198;19.646;2023-04-10T05:28:15;101184.43;;;5.08;66.23
70338;BME280;57757;53.198;19.646;2023-04-10T05:30:42;101188.14;;;5.14;66.23
70338;BME280;57757;53.198;19.646;2023-04-10T05:33:10;101193.94;;;5.22;66.28
70338;BME280;57757;53.198;19.646;2023-04-10T05:35:38;101195.41;;;5.28;66.19
70338;BME280;57757;53.198;19.646;2023-04-10T05:38:07;101197.08;;;5.37;66.27
70338;BME280;57757;53.198;19.646;2023-04-10T05:40:34;101193.39;;;5.45;66.27
70338;BME280;57757;53.198;19.646;2023-04-10T05:43:02;101195.40;;;5.53;66.25
70338;BME280;57757;53.198;19.646;2023-04-10T05:45:29;101194.98;;;5.60;66.32
70338;BME280;57757;53.198;19.646;2023-04-10T05:47:57;101199.75;;;5.69;66.29
70338;BME280;57757;53.198;19.646;2023-04-10T05:50:25;101195.55;;;5.78;66.33
70338;BME280;57757;53.198;19.646;2023-04-10T05:52:53;101197.39;;;5.86;66.26
70338;BME280;57757;53.198;19.646;2023-04-10T05:55:21;101200.60;;;5.94;66.13
70338;BME280;57757;53.198;19.646;2023-04-10T05:57:48;101201.89;;;6.01;66.11
70338;BME280;57757;53.198;19.646;2023-04-10T06:00:18;101204.56;;;6.07;66.22
70338;BME280;57757;53.198;19.646;2023-04-10T06:02:46;101201.70;;;6.15;66.18
70338;BME280;57757;53.198;19.646;2023-04-10T06:05:14;101205.60;;;6.23;66.06
70338;BME280;57757;53.198;19.646;2023-04-10T06:07:41;101200.14;;;6.31;66.13
70338;BME280;57757;53.198;19.646;2023-04-10T06:10:09;101198.84;;;6.39;66.22
70338;BME280;57757;53.198;19.646;2023-04-10T06:12:37;101199.09;;;6.47;66.15
70338;BME280;57757;53.198;19.646;2023-04-10T06:15:06;101198.82;;;6.55;66.12
70338;BME280;57757;53.198;19.646;2023-04-10T06:17:34;101198.02;;;6.63;65.97
70338;BME280;57757;53.198;19.646;2023-04-10T06:20:02;101192.89;;;6.69;66.02
70338;BME280;57757;53.198;19.646;2023-04-10T06:22:31;101190.03;;;6.79;66.10
70338;BME280;57757;53.198;19.646;2023-04-10T06:24:59;101185.95;;;6.88;66.22
70338;BME280;57757;53.198;19.646;2023-04-10T06:27:27;101186.01;;;6.96;66.03
70338;BME280;57757;53.198;19.646;2023-04-10T06:29:56;101186.77;;;7.05;66.11
70338;BME280;57757;53.198;19.646;2023-04-10T06:32:24;101192.53;;;7.13;65.90
70338;BME280;57757;53.198;19.646;2023-04-10T06:34:52;101189.29;;;7.21;65.94
70338;BME280;57757;53.198;19.646;2023-04-10T06:37:26;101192.27;;;7.29;65.76
70338;BME280;57757;53.198;19.646;2023-04-10T06:40:10;101193.36;;;7.37;65.79
70338;BME280;57757;53.198;19.646;2023-04-10T06:42:38;101192.21;;;7.46;65.67
70338;BME280;57757;53.198;19.646;2023-04-10T06:45:06;101193.29;;;7.54;65.59
70338;BME280;57757;53.198;19.646;2023-04-10T06:47:34;101199.38;;;7.62;65.68
70338;BME280;57757;53.198;19.646;2023-04-10T06:50:02;101198.55;;;7.70;65.66
70338;BME280;57757;53.198;19.646;2023-04-10T06:52:30;101199.29;;;7.80;65.64
70338;BME280;57757;53.198;19.646;2023-04-10T06:54:58;101200.53;;;7.89;65.52
70338;BME280;57757;53.198;19.646;2023-04-10T06:57:26;101198.66;;;7.97;65.52
70338;BME280;57757;53.198;19.646;2023-04-10T06:59:55;101200.25;;;8.06;65.49
70338;BME280;57757;53.198;19.646;2023-04-10T07:02:22;101202.00;;;8.16;65.47
70338;BME280;57757;53.198;19.646;2023-04-10T07:04:50;101202.05;;;8.28;65.47
70338;BME280;57757;53.198;19.646;2023-04-10T07:07:18;101201.22;;;8.37;65.40
70338;BME280;57757;53.198;19.646;2023-04-10T07:09:45;101198.98;;;8.45;65.28
70338;BME280;57757;53.198;19.646;2023-04-10T07:12:13;101194.98;;;8.53;65.38
70338;BME280;57757;53.198;19.646;2023-04-10T07:14:41;101194.31;;;8.63;65.26
70338;BME280;57757;53.198;19.646;2023-04-10T07:17:09;101187.38;;;8.73;65.25
70338;BME280;57757;53.198;19.646;2023-04-10T07:19:37;101185.64;;;8.83;65.28
70338;BME280;57757;53.198;19.646;2023-04-10T07:22:05;101183.38;;;8.93;65.29
70338;BME280;57757;53.198;19.646;2023-04-10T07:24:33;101183.54;;;9.05;65.19
70338;BME280;57757;53.198;19.646;2023-04-10T07:27:01;101185.77;;;9.17;65.24
70338;BME280;57757;53.198;19.646;2023-04-10T07:29:29;101179.51;;;9.28;64.89
70338;BME280;57757;53.198;19.646;2023-04-10T07:31:57;101184.86;;;9.39;64.90
70338;BME280;57757;53.198;19.646;2023-04-10T07:34:25;101184.82;;;9.50;64.94
70338;BME280;57757;53.198;19.646;2023-04-10T07:36:53;101187.39;;;9.64;64.98
70338;BME280;57757;53.198;19.646;2023-04-10T07:39:20;101187.67;;;9.78;65.07
70338;BME280;57757;53.198;19.646;2023-04-10T07:41:48;101189.88;;;9.91;64.98
70338;BME280;57757;53.198;19.646;2023-04-10T07:44:15;101192.41;;;10.04;64.91
70338;BME280;57757;53.198;19.646;2023-04-10T07:46:43;101191.31;;;10.20;64.83
70338;BME280;57757;53.198;19.646;2023-04-10T07:49:11;101189.14;;;10.35;64.72
70338;BME280;57757;53.198;19.646;2023-04-10T07:51:38;101191.99;;;10.48;64.57
70338;BME280;57757;53.198;19.646;2023-04-10T07:54:06;101190.50;;;10.62;64.68
70338;BME280;57757;53.198;19.646;2023-04-10T07:56:35;101181.70;;;10.75;64.53
70338;BME280;57757;53.198;19.646;2023-04-10T07:59:04;101179.31;;;10.89;64.50
70338;BME280;57757;53.198;19.646;2023-04-10T08:01:32;101175.35;;;11.05;64.40
70338;BME280;57757;53.198;19.646;2023-04-10T08:04:00;101175.70;;;11.21;64.49
70338;BME280;57757;53.198;19.646;2023-04-10T08:06:32;101172.36;;;11.40;64.26
70338;BME280;57757;53.198;19.646;2023-04-10T08:09:00;101170.42;;;11.57;64.31
70338;BME280;57757;53.198;19.646;2023-04-10T08:11:30;101168.63;;;11.77;64.26
70338;BME280;57757;53.198;19.646;2023-04-10T08:13:59;101165.05;;;11.99;64.18
70338;BME280;57757;53.198;19.646;2023-04-10T08:16:29;101165.25;;;12.20;64.09
70338;BME280;57757;53.198;19.646;2023-04-10T08:18:58;101160.42;;;12.41;63.92
70338;BME280;57757;53.198;19.646;2023-04-10T08:21:27;101158.67;;;12.62;63.85
70338;BME280;57757;53.198;19.646;2023-04-10T08:23:57;101158.98;;;12.85;63.83
70338;BME280;57757;53.198;19.646;2023-04-10T08:26:26;101162.27;;;13.08;63.63
70338;BME280;57757;53.198;19.646;2023-04-10T08:28:56;101156.66;;;13.28;63.30
70338;BME280;57757;53.198;19.646;2023-04-10T08:31:25;101159.96;;;13.47;63.38
70338;BME280;57757;53.198;19.646;2023-04-10T08:33:55;101157.97;;;13.68;63.24
70338;BME280;57757;53.198;19.646;2023-04-10T08:36:23;101155.06;;;13.88;63.07
70338;BME280;57757;53.198;19.646;2023-04-10T08:38:51;101153.92;;;14.09;63.06
70338;BME280;57757;53.198;19.646;2023-04-10T08:41:21;101148.05;;;14.29;62.95
70338;BME280;57757;53.198;19.646;2023-04-10T08:43:49;101144.78;;;14.49;62.86
70338;BME280;57757;53.198;19.646;2023-04-10T08:46:17;101144.09;;;14.69;62.76
70338;BME280;57757;53.198;19.646;2023-04-10T08:48:50;101146.56;;;14.90;62.63
70338;BME280;57757;53.198;19.646;2023-04-10T08:51:20;101140.90;;;15.11;62.45
70338;BME280;57757;53.198;19.646;2023-04-10T08:53:57;101140.17;;;15.31;62.26
70338;BME280;57757;53.198;19.646;2023-04-10T08:56:32;101137.33;;;15.52;62.09
70338;BME280;57757;53.198;19.646;2023-04-10T08:59:03;101135.13;;;15.74;62.07
70338;BME280;57757;53.198;19.646;2023-04-10T09:01:30;101132.20;;;15.95;62.02
70338;BME280;57757;53.198;19.646;2023-04-10T09:03:58;101126.92;;;16.18;61.89
70338;BME280;57757;53.198;19.646;2023-04-10T09:06:28;101123.02;;;16.41;61.73
70338;BME280;57757;53.198;19.646;2023-04-10T09:08:55;101122.13;;;16.58;61.36
70338;BME280;57757;53.198;19.646;2023-04-10T09:11:24;101119.54;;;16.78;61.42
70338;BME280;57757;53.198;19.646;2023-04-10T09:14:22;101119.02;;;17.03;61.20
70338;BME280;57757;53.198;19.646;2023-04-10T09:16:51;101122.00;;;17.18;60.77
70338;BME280;57757;53.198;19.646;2023-04-10T09:19:35;101119.40;;;17.31;60.79
70338;BME280;57757;53.198;19.646;2023-04-10T09:22:03;101115.16;;;17.55;60.69
70338;BME280;57757;53.198;19.646;2023-04-10T09:24:34;101109.69;;;17.76;60.43
70338;BME280;57757;53.198;19.646;2023-04-10T09:27:04;101106.36;;;17.88;60.17
70338;BME280;57757;53.198;19.646;2023-04-10T09:29:48;101105.25;;;17.98;59.86
70338;BME280;57757;53.198;19.646;2023-04-10T09:35:02;101096.38;;;18.22;59.78
70338;BME280;57757;53.198;19.646;2023-04-10T09:37:35;101091.04;;;18.49;59.95
70338;BME280;57757;53.198;19.646;2023-04-10T09:40:03;101089.96;;;18.67;59.34
70338;BME280;57757;53.198;19.646;2023-04-10T09:42:33;101084.34;;;18.79;59.30
70338;BME280;57757;53.198;19.646;2023-04-10T09:45:04;101084.80;;;19.01;59.24
70338;BME280;57757;53.198;19.646;2023-04-10T09:47:32;101079.31;;;19.28;59.26
70338;BME280;57757;53.198;19.646;2023-04-10T09:50:01;101075.69;;;19.50;58.89
70338;BME280;57757;53.198;19.646;2023-04-10T09:54:59;101067.10;;;20.01;58.82
70338;BME280;57757;53.198;19.646;2023-04-10T09:57:30;101068.79;;;20.28;58.65
70338;BME280;57757;53.198;19.646;2023-04-10T10:00:00;101060.91;;;20.51;58.39
70338;BME280;57757;53.198;19.646;2023-04-10T10:02:29;101060.29;;;20.80;58.36
70338;BME280;57757;53.198;19.646;2023-04-10T10:04:58;101060.41;;;21.05;57.96
70338;BME280;57757;53.198;19.646;2023-04-10T10:07:28;101054.54;;;21.22;57.59
70338;BME280;57757;53.198;19.646;2023-04-10T10:09:58;101053.07;;;21.26;57.15
70338;BME280;57757;53.198;19.646;2023-04-10T10:15:16;101052.00;;;21.68;57.23
70338;BME280;57757;53.198;19.646;2023-04-10T10:20:49;101039.22;;;22.16;56.84
70338;BME280;57757;53.198;19.646;2023-04-10T10:23:18;101034.10;;;22.40;56.76
70338;BME280;57757;53.198;19.646;2023-04-10T10:25:47;101032.85;;;22.67;56.70
70338;BME280;57757;53.198;19.646;2023-04-10T10:28:17;101033.05;;;22.87;56.15
70338;BME280;57757;53.198;19.646;2023-04-10T10:30:46;101027.67;;;23.13;56.15
70338;BME280;57757;53.198;19.646;2023-04-10T10:33:14;101028.10;;;23.41;55.78
70338;BME280;57757;53.198;19.646;2023-04-10T10:35:42;101025.69;;;23.59;55.47
70338;BME280;57757;53.198;19.646;2023-04-10T10:38:10;101027.58;;;23.71;55.11
70338;BME280;57757;53.198;19.646;2023-04-10T10:50:01;101014.12;;;24.11;54.28
70338;BME280;57757;53.198;19.646;2023-04-10T10:52:46;101010.48;;;23.82;53.47
70338;BME280;57757;53.198;19.646;2023-04-10T10:57:54;101013.87;;;22.90;53.01
70338;BME280;57757;53.198;19.646;2023-04-10T11:00:24;101010.88;;;22.49;52.91
70338;BME280;57757;53.198;19.646;2023-04-10T11:08:44;101004.33;;;21.15;52.63
70338;BME280;57757;53.198;19.646;2023-04-10T11:11:30;101000.30;;;20.75;52.57
70338;BME280;57757;53.198;19.646;2023-04-10T11:19:03;101000.09;;;19.74;52.63
70338;BME280;57757;53.198;19.646;2023-04-10T11:22:00;100995.23;;;19.51;52.65
70338;BME280;57757;53.198;19.646;2023-04-10T11:24:28;100994.04;;;19.23;52.67
70338;BME280;57757;53.198;19.646;2023-04-10T11:26:56;100988.84;;;19.10;52.75
70338;BME280;57757;53.198;19.646;2023-04-10T11:29:31;100982.91;;;19.00;52.75
70338;BME280;57757;53.198;19.646;2023-04-10T11:32:02;100983.40;;;18.98;52.80
70338;BME280;57757;53.198;19.646;2023-04-10T11:34:30;100983.20;;;19.09;52.97
70338;BME280;57757;53.198;19.646;2023-04-10T11:37:00;100980.47;;;19.34;53.11
70338;BME280;57757;53.198;19.646;2023-04-10T11:39:30;100974.69;;;20.09;53.80
70338;BME280;57757;53.198;19.646;2023-04-10T11:41:58;100974.19;;;21.13;53.92
70338;BME280;57757;53.198;19.646;2023-04-10T11:44:31;100969.42;;;22.01;53.51
70338;BME280;57757;53.198;19.646;2023-04-10T11:46:59;100965.16;;;22.63;52.82
70338;BME280;57757;53.198;19.646;2023-04-10T11:49:30;100961.34;;;23.30;52.50
70338;BME280;57757;53.198;19.646;2023-04-10T11:51:58;100963.64;;;24.06;52.31
70338;BME280;57757;53.198;19.646;2023-04-10T11:54:27;100963.71;;;24.64;51.84
70338;BME280;57757;53.198;19.646;2023-04-10T11:57:04;100961.73;;;24.72;51.21
70338;BME280;57757;53.198;19.646;2023-04-10T11:59:34;100963.83;;;24.40;50.45
70338;BME280;57757;53.198;19.646;2023-04-10T12:02:10;100959.85;;;23.98;50.20
70338;BME280;57757;53.198;19.646;2023-04-10T12:04:38;100957.43;;;23.46;49.83
70338;BME280;57757;53.198;19.646;2023-04-10T12:07:07;100957.15;;;22.92;49.86
70338;BME280;57757;53.198;19.646;2023-04-10T12:09:35;100955.58;;;22.43;49.99
70338;BME280;57757;53.198;19.646;2023-04-10T12:12:05;100953.33;;;22.03;50.10
70338;BME280;57757;53.198;19.646;2023-04-10T12:14:38;100955.33;;;21.66;50.02
70338;BME280;57757;53.198;19.646;2023-04-10T12:17:07;100954.16;;;21.30;49.98
70338;BME280;57757;53.198;19.646;2023-04-10T12:19:37;100953.79;;;20.98;49.96
70338;BME280;57757;53.198;19.646;2023-04-10T12:22:05;100950.35;;;20.67;49.98
70338;BME280;57757;53.198;19.646;2023-04-10T12:27:28;100948.50;;;20.11;50.07
70338;BME280;57757;53.198;19.646;2023-04-10T12:29:56;100946.74;;;19.79;50.10
70338;BME280;57757;53.198;19.646;2023-04-10T12:32:25;100947.08;;;19.54;50.14
70338;BME280;57757;53.198;19.646;2023-04-10T12:34:56;100941.04;;;19.29;50.14
70338;BME280;57757;53.198;19.646;2023-04-10T12:37:48;100936.77;;;19.03;50.04
70338;BME280;57757;53.198;19.646;2023-04-10T12:40:17;100936.25;;;18.77;50.02
70338;BME280;57757;53.198;19.646;2023-04-10T12:42:46;100936.00;;;18.59;50.12
70338;BME280;57757;53.198;19.646;2023-04-10T12:45:14;100937.11;;;18.41;50.06
70338;BME280;57757;53.198;19.646;2023-04-10T12:47:49;100937.53;;;18.23;50.08
70338;BME280;57757;53.198;19.646;2023-04-10T12:50:20;100930.48;;;18.07;50.08
70338;BME280;57757;53.198;19.646;2023-04-10T12:53:04;100927.27;;;17.92;50.21
70338;BME280;57757;53.198;19.646;2023-04-10T12:55:35;100923.90;;;17.76;50.29
70338;BME280;57757;53.198;19.646;2023-04-10T12:58:19;100920.02;;;17.63;50.26
70338;BME280;57757;53.198;19.646;2023-04-10T13:00:48;100915.33;;;17.48;50.34
70338;BME280;57757;53.198;19.646;2023-04-10T13:03:15;100916.13;;;17.33;50.26
70338;BME280;57757;53.198;19.646;2023-04-10T13:05:43;100913.35;;;17.18;50.42
70338;BME280;57757;53.198;19.646;2023-04-10T13:08:11;100913.88;;;17.09;50.54
70338;BME280;57757;53.198;19.646;2023-04-10T13:10:38;100908.19;;;17.02;50.38
70338;BME280;57757;53.198;19.646;2023-04-10T13:13:08;100908.31;;;16.94;50.39
70338;BME280;57757;53.198;19.646;2023-04-10T13:15:40;100902.61;;;16.87;50.51
70338;BME280;57757;53.198;19.646;2023-04-10T13:18:11;100900.02;;;16.82;50.60
70338;BME280;57757;53.198;19.646;2023-04-10T13:20:39;100899.20;;;16.75;50.45
70338;BME280;57757;53.198;19.646;2023-04-10T13:23:07;100899.60;;;16.69;50.55
70338;BME280;57757;53.198;19.646;2023-04-10T13:25:38;100896.42;;;16.65;50.60
70338;BME280;57757;53.198;19.646;2023-04-10T13:28:06;100893.05;;;16.61;50.55
70338;BME280;57757;53.198;19.646;2023-04-10T13:30:39;100887.91;;;16.58;50.62
70338;BME280;57757;53.198;19.646;2023-04-10T13:33:07;100885.13;;;16.56;50.70
70338;BME280;57757;53.198;19.646;2023-04-10T13:35:36;100878.48;;;16.55;50.78
70338;BME280;57757;53.198;19.646;2023-04-10T13:38:03;100878.86;;;16.55;50.71
70338;BME280;57757;53.198;19.646;2023-04-10T13:40:31;100873.81;;;16.54;50.78
70338;BME280;57757;53.198;19.646;2023-04-10T13:42:59;100872.61;;;16.52;50.83
70338;BME280;57757;53.198;19.646;2023-04-10T13:45:27;100872.25;;;16.53;50.84
70338;BME280;57757;53.198;19.646;2023-04-10T13:47:54;100871.38;;;16.53;50.74